Time;durP1;ratioP1;P1;durP2;ratioP2;P2;SDS_P1;SDS_P2;PMS_P1;PMS_P2;Temp;Humidity;BMP_temperature;BMP_pressure;BME280_temperature;BME280_humidity;BME280_pressure;Samples;Min_cycle;Max_cycle;Signal;HPM_P1;HPM_P2
2021/09/06 00:02:00;;;;;;;17.53;11.57;;;;;;;11.23;100.00;101191.66;5132456;27;20176;-74
2021/09/06 00:04:25;;;;;;;18.73;12.50;;;;;;;11.22;100.00;101194.72;5131700;27;20691;-74
2021/09/06 00:06:51;;;;;;;13.10;11.67;;;;;;;11.14;100.00;101187.16;5132114;27;20616;-73
2021/09/06 00:09:16;;;;;;;20.43;12.73;;;;;;;11.28;100.00;101183.41;5131973;27;20199;-74
2021/09/06 00:11:41;;;;;;;18.43;12.27;;;;;;;11.35;100.00;101204.91;5132428;27;20572;-73
2021/09/06 00:14:07;;;;;;;16.03;12.17;;;;;;;11.35;100.00;101193.16;5131416;27;20172;-73
2021/09/06 00:16:32;;;;;;;13.37;10.83;;;;;;;11.33;100.00;101194.25;5132186;27;20213;-73
2021/09/06 00:18:58;;;;;;;16.57;12.00;;;;;;;11.32;100.00;101194.56;5132039;27;20217;-73
2021/09/06 00:21:23;;;;;;;12.70;11.40;;;;;;;11.30;100.00;101192.13;5132446;27;20260;-73
2021/09/06 00:23:49;;;;;;;16.17;11.70;;;;;;;11.29;100.00;101186.94;5131496;27;20202;-73
2021/09/06 00:26:14;;;;;;;12.00;10.70;;;;;;;11.27;100.00;101192.69;5132079;27;20632;-73
2021/09/06 00:28:39;;;;;;;14.57;11.90;;;;;;;11.29;100.00;101193.25;5131713;27;20248;-74
2021/09/06 00:31:05;;;;;;;18.60;11.87;;;;;;;11.32;100.00;101189.91;5131704;27;20176;-73
2021/09/06 00:33:30;;;;;;;12.53;11.20;;;;;;;11.35;100.00;101187.66;5131633;27;20278;-73
2021/09/06 00:35:57;;;;;;;12.13;10.47;;;;;;;10.89;100.00;101188.38;5131476;27;20172;-74
2021/09/06 00:38:23;;;;;;;10.67;9.17;;;;;;;10.56;100.00;101193.72;5131593;27;20258;-73
2021/09/06 00:40:50;;;;;;;13.83;9.93;;;;;;;10.79;100.00;101199.44;5131475;27;20639;-74
2021/09/06 00:43:17;;;;;;;11.37;10.07;;;;;;;11.03;100.00;101198.28;5131765;27;20191;-74
2021/09/06 00:45:45;;;;;;;11.10;9.97;;;;;;;11.16;100.00;101198.66;5131501;27;20232;-73
2021/09/06 00:48:10;;;;;;;12.73;9.10;;;;;;;11.20;100.00;101192.28;5131504;27;20224;-73
2021/09/06 00:50:36;;;;;;;11.13;8.67;;;;;;;11.21;100.00;101199.38;5131424;27;20643;-73
2021/09/06 00:53:02;;;;;;;9.63;8.70;;;;;;;11.21;100.00;101199.38;5131556;28;20201;-73
2021/09/06 00:55:28;;;;;;;10.97;9.27;;;;;;;11.28;100.00;101194.34;5131083;28;20196;-73
2021/09/06 00:57:54;;;;;;;10.10;9.10;;;;;;;11.36;100.00;101201.06;5131304;28;20176;-73
2021/09/06 01:00:20;;;;;;;9.50;8.60;;;;;;;11.41;100.00;101200.97;5131539;28;20177;-74
2021/09/06 01:02:46;;;;;;;10.13;9.07;;;;;;;11.48;100.00;101201.41;5131298;28;20177;-73
2021/09/06 01:05:13;;;;;;;19.87;12.87;;;;;;;11.57;100.00;101193.31;5131219;28;20192;-73
2021/09/06 01:07:39;;;;;;;15.37;11.87;;;;;;;11.57;100.00;101196.88;5131218;28;20267;-73
2021/09/06 01:10:08;;;;;;;13.83;11.73;;;;;;;11.16;100.00;101196.72;5131194;28;20798;-73
2021/09/06 01:12:34;;;;;;;14.57;12.10;;;;;;;11.05;100.00;101189.78;5131399;28;20176;-73
2021/09/06 01:14:59;;;;;;;13.00;10.70;;;;;;;11.28;100.00;101193.50;5130944;28;20173;-74
2021/09/06 01:17:25;;;;;;;17.80;10.83;;;;;;;11.42;100.00;101193.56;5131201;28;20301;-73
2021/09/06 01:19:50;;;;;;;22.00;13.33;;;;;;;11.44;100.00;101192.19;5131197;28;20204;-74
2021/09/06 01:22:18;;;;;;;19.80;12.57;;;;;;;11.14;100.00;101198.94;5131034;28;20172;-73
2021/09/06 01:24:43;;;;;;;19.67;11.97;;;;;;;11.15;100.00;101189.63;5131827;27;20176;-73
2021/09/06 01:27:09;;;;;;;18.53;12.63;;;;;;;11.32;100.00;101197.28;5135350;27;20176;-73
2021/09/06 01:29:34;;;;;;;14.83;12.57;;;;;;;11.43;100.00;101197.91;5135322;27;20682;-73
2021/09/06 01:31:59;;;;;;;18.00;12.70;;;;;;;11.46;100.00;101200.09;5135161;27;20183;-73
2021/09/06 01:34:25;;;;;;;14.53;11.40;;;;;;;11.51;100.00;101183.56;5134888;27;20256;-73
2021/09/06 01:36:50;;;;;;;16.67;12.57;;;;;;;11.50;100.00;101184.69;5135202;27;20208;-73
2021/09/06 01:39:15;;;;;;;26.37;14.90;;;;;;;11.45;100.00;101191.06;5135425;27;20707;-73
2021/09/06 01:41:41;;;;;;;15.53;12.47;;;;;;;11.41;100.00;101189.19;5134866;27;20252;-73
2021/09/06 01:44:06;;;;;;;19.83;13.97;;;;;;;11.41;100.00;101191.94;5134594;27;20264;-73
2021/09/06 01:46:33;;;;;;;19.73;12.13;;;;;;;11.40;100.00;101184.84;5134981;27;20636;-73
2021/09/06 01:48:59;;;;;;;17.57;11.60;;;;;;;11.39;100.00;101194.97;5134865;27;20239;-73
2021/09/06 01:51:25;;;;;;;12.57;11.27;;;;;;;11.43;100.00;101193.28;5135135;27;20204;-74
2021/09/06 01:53:52;;;;;;;13.03;11.13;;;;;;;11.43;100.00;101187.81;5134481;27;20207;-73
2021/09/06 01:56:17;;;;;;;16.73;10.93;;;;;;;11.38;100.00;101184.34;5134719;27;20173;-73
2021/09/06 01:58:43;;;;;;;13.37;11.77;;;;;;;11.01;100.00;101180.53;5134779;27;20584;-73
2021/09/06 02:01:08;;;;;;;19.07;11.90;;;;;;;11.01;100.00;101184.09;5134753;27;20176;-74
2021/09/06 02:03:33;;;;;;;16.63;12.20;;;;;;;11.04;100.00;101182.69;5134494;27;20173;-73
2021/09/06 02:05:59;;;;;;;18.07;11.70;;;;;;;11.10;100.00;101188.88;5134465;27;20172;-73
2021/09/06 02:08:24;;;;;;;16.27;11.53;;;;;;;11.03;100.00;101181.88;5134343;27;20683;-73
2021/09/06 02:10:49;;;;;;;13.53;12.03;;;;;;;11.03;100.00;101187.34;5134493;27;20179;-73
2021/09/06 02:13:15;;;;;;;20.63;11.60;;;;;;;11.15;100.00;101184.16;5134292;27;20172;-73
2021/09/06 02:15:40;;;;;;;12.60;10.57;;;;;;;11.11;100.00;101180.38;5134125;27;20172;-74
2021/09/06 02:18:05;;;;;;;10.70;9.60;;;;;;;11.11;100.00;101179.56;5134359;27;20255;-74
2021/09/06 02:20:31;;;;;;;11.47;10.27;;;;;;;10.66;100.00;101184.56;5134413;27;20631;-74
2021/09/06 02:22:56;;;;;;;24.87;11.10;;;;;;;9.96;100.00;101187.81;5134181;27;20643;-73
2021/09/06 02:25:21;;;;;;;10.90;9.90;;;;;;;10.00;100.00;101182.63;5134028;27;20632;-74
2021/09/06 02:27:47;;;;;;;12.10;10.80;;;;;;;10.38;100.00;101191.75;5115765;27;20176;-73
2021/09/06 02:30:12;;;;;;;12.03;9.80;;;;;;;10.55;100.00;101192.06;5134215;27;20640;-73
2021/09/06 02:32:38;;;;;;;11.23;9.57;;;;;;;10.65;100.00;101191.16;5134120;27;20190;-73
2021/09/06 02:35:05;;;;;;;9.57;8.67;;;;;;;10.69;100.00;101187.53;5133853;27;20627;-74
2021/09/06 02:37:30;;;;;;;9.50;8.50;;;;;;;10.70;100.00;101172.78;5134016;27;20173;-73
2021/09/06 02:39:56;;;;;;;10.40;9.30;;;;;;;10.69;100.00;101181.25;5115641;27;20221;-73
2021/09/06 02:42:21;;;;;;;10.03;9.03;;;;;;;10.70;100.00;101189.19;5129842;27;20229;-73
2021/09/06 02:44:46;;;;;;;8.97;8.17;;;;;;;10.52;100.00;101187.22;5125809;27;20663;-74
2021/09/06 02:47:12;;;;;;;9.33;8.53;;;;;;;10.53;100.00;101174.34;5133748;27;20226;-74
2021/09/06 02:49:37;;;;;;;9.30;8.37;;;;;;;10.65;100.00;101181.03;5133618;27;20220;-74
2021/09/06 02:52:03;;;;;;;10.07;9.07;;;;;;;10.60;100.00;101178.38;5133543;27;20179;-73
2021/09/06 02:54:28;;;;;;;10.03;9.03;;;;;;;10.22;100.00;101182.13;5133402;27;20203;-73
2021/09/06 02:56:53;;;;;;;11.43;8.37;;;;;;;10.37;100.00;101177.28;5133583;27;20177;-73
2021/09/06 02:59:19;;;;;;;10.33;9.43;;;;;;;10.43;100.00;101169.84;5133490;27;20592;-73
2021/09/06 03:01:44;;;;;;;10.20;9.23;;;;;;;10.43;100.00;101178.06;5134182;27;20172;-73
2021/09/06 03:04:09;;;;;;;10.73;9.73;;;;;;;10.31;100.00;101172.19;5142635;27;20618;-73
2021/09/06 03:06:35;;;;;;;9.97;8.97;;;;;;;10.39;100.00;101172.34;5138074;27;20536;-73
2021/09/06 03:09:00;;;;;;;11.17;10.10;;;;;;;10.34;100.00;101169.69;5134617;27;20200;-73
2021/09/06 03:11:25;;;;;;;12.83;9.43;;;;;;;10.52;100.00;101159.88;5134004;27;20232;-73
2021/09/06 03:13:52;;;;;;;10.73;9.63;;;;;;;10.60;100.00;101166.63;5133428;27;20301;-73
2021/09/06 03:16:17;;;;;;;24.67;10.00;;;;;;;9.99;100.00;101164.59;5133498;27;20168;-72
2021/09/06 03:18:43;;;;;;;11.10;9.43;;;;;;;10.22;100.00;101169.28;5133431;27;20177;-73
2021/09/06 03:21:08;;;;;;;10.10;9.10;;;;;;;10.40;100.00;101160.31;5133214;27;20241;-72
2021/09/06 03:23:33;;;;;;;10.23;8.93;;;;;;;10.45;100.00;101164.09;5133435;27;20260;-73
2021/09/06 03:25:59;;;;;;;10.77;9.33;;;;;;;10.46;100.00;101177.47;5133128;27;20168;-73
2021/09/06 03:28:24;;;;;;;10.83;9.83;;;;;;;10.46;100.00;101165.72;5132985;27;20193;-73
2021/09/06 03:30:49;;;;;;;10.20;9.20;;;;;;;10.39;100.00;101158.69;5133030;27;20655;-73
2021/09/06 03:33:15;;;;;;;9.90;9.00;;;;;;;10.42;100.00;101157.31;5132954;27;20168;-73
2021/09/06 03:35:42;;;;;;;11.37;10.27;;;;;;;10.38;100.00;101159.78;5114355;27;20173;-73
2021/09/06 03:38:08;;;;;;;11.33;9.07;;;;;;;10.39;100.00;101163.31;5132927;27;20686;-73
2021/09/06 03:40:33;;;;;;;9.03;8.23;;;;;;;10.20;100.00;101162.44;5132836;27;20256;-74
2021/09/06 03:42:59;;;;;;;11.13;10.10;;;;;;;10.07;100.00;101159.31;5132755;27;20169;-73
2021/09/06 03:45:24;;;;;;;11.20;9.50;;;;;;;10.03;100.00;101155.53;5114245;27;20172;-73
2021/09/06 03:47:49;;;;;;;10.03;9.03;;;;;;;9.88;100.00;101152.16;5132096;27;20168;-73
2021/09/06 03:50:15;;;;;;;8.77;7.87;;;;;;;9.82;100.00;101156.84;5132602;27;20177;-73
2021/09/06 03:52:40;;;;;;;8.77;7.87;;;;;;;9.71;100.00;101160.81;5132601;27;20173;-73
2021/09/06 03:55:06;;;;;;;8.93;8.03;;;;;;;9.70;100.00;101159.19;5132437;27;20176;-74
2021/09/06 03:57:31;;;;;;;9.07;8.17;;;;;;;9.62;100.00;101162.50;5132616;27;20200;-72
2021/09/06 03:59:56;;;;;;;8.80;7.97;;;;;;;9.62;100.00;101157.88;5132515;27;20255;-73
2021/09/06 04:02:22;;;;;;;8.00;7.30;;;;;;;9.61;100.00;101160.88;5132496;27;20221;-72
2021/09/06 04:04:47;;;;;;;8.73;7.90;;;;;;;9.52;100.00;101158.75;5131981;27;20666;-73
2021/09/06 04:07:12;;;;;;;9.23;8.33;;;;;;;9.35;100.00;101161.09;5132216;27;20172;-74
2021/09/06 04:09:38;;;;;;;8.00;7.30;;;;;;;9.28;100.00;101163.34;5132229;27;20613;-72
2021/09/06 04:12:03;;;;;;;8.80;7.90;;;;;;;9.30;100.00;101169.34;5132257;27;20582;-73
2021/09/06 04:14:32;;;;;;;12.73;8.40;;;;;;;9.32;100.00;101169.03;5131966;27;20251;-73
2021/09/06 04:16:58;;;;;;;9.10;8.30;;;;;;;9.33;100.00;101174.22;5132198;27;20175;-73
2021/09/06 04:19:23;;;;;;;9.33;8.43;;;;;;;9.38;100.00;101179.63;5131931;27;20184;-73
2021/09/06 04:21:48;;;;;;;8.67;7.93;;;;;;;9.39;100.00;101186.69;5132128;27;20172;-73
2021/09/06 04:24:14;;;;;;;8.83;8.03;;;;;;;9.45;100.00;101192.94;5131846;27;20180;-73
2021/09/06 04:26:39;;;;;;;9.57;8.63;;;;;;;9.48;100.00;101201.34;5131946;27;20263;-74
2021/09/06 04:29:04;;;;;;;12.07;7.40;;;;;;;9.48;100.00;101193.19;5131915;27;20200;-73
2021/09/06 04:31:30;;;;;;;11.53;7.93;;;;;;;9.31;100.00;101200.97;5131864;27;20180;-73
2021/09/06 04:33:55;;;;;;;8.90;8.00;;;;;;;9.30;100.00;101198.53;5131707;27;20233;-73
2021/09/06 04:36:20;;;;;;;7.77;7.07;;;;;;;9.22;100.00;101200.72;5131868;27;20194;-73
2021/09/06 04:38:46;;;;;;;8.47;6.33;;;;;;;9.15;100.00;101213.06;5131812;27;20180;-73
2021/09/06 04:41:11;;;;;;;8.10;7.30;;;;;;;9.16;100.00;101212.78;5131799;27;20168;-73
2021/09/06 04:43:36;;;;;;;7.90;7.17;;;;;;;9.17;100.00;101214.41;5131658;27;20264;-73
2021/09/06 04:46:01;;;;;;;7.63;6.93;;;;;;;9.14;100.00;101216.91;5131782;27;20535;-72
2021/09/06 04:48:27;;;;;;;8.17;7.47;;;;;;;9.07;100.00;101219.91;5131241;27;20677;-73
2021/09/06 04:50:52;;;;;;;7.03;6.30;;;;;;;8.96;100.00;101215.63;5131649;27;20269;-73
2021/09/06 04:53:17;;;;;;;14.03;6.60;;;;;;;8.87;100.00;101211.88;5131238;27;20240;-73
2021/09/06 04:55:43;;;;;;;17.33;6.90;;;;;;;8.87;100.00;101220.06;5131267;28;20191;-73
2021/09/06 04:58:08;;;;;;;6.13;5.57;;;;;;;8.89;100.00;101221.41;5131820;27;20168;-73
2021/09/06 05:00:33;;;;;;;8.60;6.40;;;;;;;8.95;100.00;101220.25;5134056;27;20206;-73
2021/09/06 05:02:59;;;;;;;12.50;7.37;;;;;;;9.05;100.00;101213.94;5135560;27;20172;-73
2021/09/06 05:05:24;;;;;;;10.30;6.33;;;;;;;9.16;100.00;101225.59;5135298;27;20200;-73
2021/09/06 05:07:49;;;;;;;11.60;6.60;;;;;;;9.24;100.00;101222.25;5117029;27;20687;-73
2021/09/06 05:10:15;;;;;;;8.27;7.20;;;;;;;9.33;100.00;101228.75;5135401;27;20694;-72
2021/09/06 05:12:40;;;;;;;7.53;6.83;;;;;;;9.37;100.00;101226.25;5135706;27;20169;-73
2021/09/06 05:15:06;;;;;;;6.53;5.87;;;;;;;9.45;100.00;101228.41;5116615;27;20672;-72
2021/09/06 05:17:31;;;;;;;8.13;7.33;;;;;;;9.25;100.00;101232.06;5135509;27;20199;-72
2021/09/06 05:19:56;;;;;;;8.30;7.40;;;;;;;9.36;100.00;101233.63;5135231;27;20218;-73
2021/09/06 05:22:22;;;;;;;7.07;6.37;;;;;;;9.41;100.00;101230.06;5135478;27;20258;-72
2021/09/06 05:24:47;;;;;;;6.97;6.30;;;;;;;9.49;100.00;101240.34;5135151;27;20329;-73
2021/09/06 05:27:13;;;;;;;13.77;7.13;;;;;;;9.64;100.00;101250.34;5135114;27;20417;-73
2021/09/06 05:29:38;;;;;;;10.97;6.60;;;;;;;9.43;100.00;101242.31;5135022;27;20200;-75
2021/09/06 05:32:04;;;;;;;6.53;5.93;;;;;;;9.52;100.00;101240.59;5134973;27;20640;-73
2021/09/06 05:34:29;;;;;;;7.40;6.70;;;;;;;9.30;100.00;101248.41;5113159;27;20184;-73
2021/09/06 05:36:55;;;;;;;7.37;6.60;;;;;;;9.47;100.00;101248.84;5134774;27;20257;-73
2021/09/06 05:39:20;;;;;;;6.97;6.20;;;;;;;9.65;100.00;101246.50;5135161;27;20252;-73
2021/09/06 05:41:45;;;;;;;10.30;7.07;;;;;;;9.73;100.00;101241.25;5135116;27;20255;-72
2021/09/06 05:44:11;;;;;;;7.27;6.60;;;;;;;9.74;100.00;101253.81;5134784;27;20169;-71
2021/09/06 05:46:36;;;;;;;8.20;6.90;;;;;;;9.82;100.00;101246.91;5135003;27;20171;-73
2021/09/06 05:49:02;;;;;;;7.40;6.70;;;;;;;9.94;100.00;101241.88;5134833;27;20241;-72
2021/09/06 05:51:27;;;;;;;7.27;6.60;;;;;;;9.99;100.00;101251.97;5135037;27;20602;-73
2021/09/06 05:53:52;;;;;;;9.47;7.37;;;;;;;9.86;100.00;101252.63;5134766;27;20204;-72
2021/09/06 05:56:19;;;;;;;10.67;6.40;;;;;;;9.66;100.00;101254.41;5134783;27;20555;-72
2021/09/06 05:58:44;;;;;;;6.90;6.30;;;;;;;9.40;100.00;101256.53;5134688;27;20186;-72
2021/09/06 06:01:10;;;;;;;8.10;7.30;;;;;;;9.69;100.00;101255.75;5134639;27;20186;-72
2021/09/06 06:03:36;;;;;;;13.90;6.60;;;;;;;9.80;100.00;101260.03;5134367;27;20198;-72
2021/09/06 06:06:01;;;;;;;8.50;7.23;;;;;;;9.88;100.00;101253.16;5134617;27;20172;-72
2021/09/06 06:08:26;;;;;;;6.43;5.83;;;;;;;10.07;100.00;101257.59;5134537;27;20597;-72
2021/09/06 06:10:52;;;;;;;9.63;7.10;;;;;;;10.11;100.00;101258.63;5134210;27;20172;-72
2021/09/06 06:13:17;;;;;;;7.13;5.50;;;;;;;9.83;100.00;101257.53;5134500;27;20180;-73
2021/09/06 06:15:43;;;;;;;11.77;6.90;;;;;;;9.42;100.00;101257.06;5134437;27;20169;-73
2021/09/06 06:18:08;;;;;;;6.60;6.00;;;;;;;9.62;100.00;101258.81;5134466;27;20243;-73
2021/09/06 06:20:34;;;;;;;7.73;5.67;;;;;;;9.90;100.00;101250.94;5134433;27;20176;-72
2021/09/06 06:22:59;;;;;;;6.60;5.27;;;;;;;9.83;100.00;101259.44;5134433;27;20679;-73
2021/09/06 06:25:24;;;;;;;6.53;5.90;;;;;;;9.91;100.00;101258.84;5115844;27;20183;-72
2021/09/06 06:27:50;;;;;;;6.50;5.23;;;;;;;10.07;100.00;101254.06;5134377;27;20179;-72
2021/09/06 06:30:15;;;;;;;6.17;5.53;;;;;;;10.10;100.00;101257.00;5134123;27;20231;-72
2021/09/06 06:32:40;;;;;;;10.27;6.40;;;;;;;10.28;100.00;101258.25;5134216;27;20645;-72
2021/09/06 06:35:06;;;;;;;9.40;5.97;;;;;;;10.31;100.00;101254.13;5133962;27;20597;-72
2021/09/06 06:37:31;;;;;;;9.97;6.73;;;;;;;10.27;100.00;101256.63;5134079;27;20172;-73
2021/09/06 06:39:57;;;;;;;9.93;5.60;;;;;;;10.13;100.00;101261.09;5134062;27;20632;-73
2021/09/06 06:42:22;;;;;;;7.23;6.53;;;;;;;10.00;100.00;101259.88;5130186;27;20176;-74
2021/09/06 06:44:47;;;;;;;10.40;6.97;;;;;;;10.02;100.00;101265.03;5133744;27;20208;-74
2021/09/06 06:47:13;;;;;;;7.90;7.10;;;;;;;10.32;100.00;101270.22;5133837;27;20184;-72
2021/09/06 06:49:38;;;;;;;8.07;7.27;;;;;;;10.25;100.00;101271.66;5133628;27;20208;-72
2021/09/06 06:52:04;;;;;;;7.13;6.43;;;;;;;10.09;100.00;101271.75;5133717;27;20211;-72
2021/09/06 06:54:30;;;;;;;11.80;6.40;;;;;;;10.44;100.00;101275.28;5133547;27;20211;-72
2021/09/06 06:56:55;;;;;;;8.37;6.77;;;;;;;10.71;100.00;101277.44;5133671;27;20247;-72
2021/09/06 06:59:20;;;;;;;11.23;6.03;;;;;;;10.87;100.00;101276.16;5115198;27;20324;-72
2021/09/06 07:01:45;;;;;;;10.63;5.50;;;;;;;10.90;100.00;101270.09;5115028;27;20176;-72
2021/09/06 07:04:11;;;;;;;12.10;6.93;;;;;;;10.90;100.00;101272.81;5133297;27;20555;-72
2021/09/06 07:06:36;;;;;;;8.07;7.27;;;;;;;10.96;100.00;101279.84;5133550;27;20192;-73
2021/09/06 07:09:02;;;;;;;8.33;7.00;;;;;;;11.12;100.00;101285.91;5133609;27;20485;-75
2021/09/06 07:11:27;;;;;;;7.80;7.00;;;;;;;11.19;100.00;101289.13;5133329;27;20176;-75
2021/09/06 07:13:53;;;;;;;7.37;6.67;;;;;;;11.27;100.00;101291.19;5133190;27;20260;-75
2021/09/06 07:16:18;;;;;;;7.97;7.17;;;;;;;11.37;100.00;101292.16;5133255;27;20176;-75
2021/09/06 07:18:43;;;;;;;10.90;6.60;;;;;;;11.35;100.00;101276.03;5133241;27;20623;-76
2021/09/06 07:21:09;;;;;;;6.97;6.27;;;;;;;11.51;100.00;101282.91;5133181;27;20545;-76
2021/09/06 07:23:34;;;;;;;8.10;6.53;;;;;;;11.55;100.00;101283.09;5132120;27;20172;-76
2021/09/06 07:25:59;;;;;;;6.73;6.00;;;;;;;11.68;100.00;101284.28;5132840;27;20266;-76
2021/09/06 07:28:25;;;;;;;6.30;5.53;;;;;;;11.74;100.00;101294.06;5132956;27;20606;-75
2021/09/06 07:30:50;;;;;;;6.90;6.10;;;;;;;11.47;100.00;101292.81;5132905;27;20172;-74
2021/09/06 07:33:15;;;;;;;9.67;6.70;;;;;;;11.65;100.00;101290.38;5132823;27;20235;-75
2021/09/06 07:35:41;;;;;;;6.57;5.53;;;;;;;11.61;100.00;101290.16;5132765;27;20175;-75
2021/09/06 07:38:06;;;;;;;9.07;5.27;;;;;;;11.74;100.00;101300.34;5133038;27;20221;-73
2021/09/06 07:40:31;;;;;;;5.50;4.97;;;;;;;11.74;100.00;101294.06;5132917;27;20172;-75
2021/09/06 07:42:57;;;;;;;6.83;5.93;;;;;;;11.69;100.00;101297.66;5132832;27;20179;-74
2021/09/06 07:45:22;;;;;;;8.20;6.77;;;;;;;11.59;100.00;101297.84;5132480;27;20168;-74
2021/09/06 07:47:47;;;;;;;6.53;5.93;;;;;;;11.55;100.00;101305.81;5132610;27;20567;-74
2021/09/06 07:50:14;;;;;;;7.70;6.20;;;;;;;11.67;100.00;101310.84;5132576;27;20208;-76
2021/09/06 07:52:40;;;;;;;7.83;7.13;;;;;;;11.51;100.00;101301.25;5132192;27;20173;-77
2021/09/06 07:55:07;;;;;;;6.93;6.27;;;;;;;11.70;100.00;101310.25;5132249;27;20510;-75
2021/09/06 07:57:33;;;;;;;6.33;5.73;;;;;;;11.91;100.00;101306.13;5132354;27;20540;-75
2021/09/06 07:59:59;;;;;;;6.67;6.07;;;;;;;12.19;100.00;101317.97;5132398;27;20168;-73
2021/09/06 08:02:24;;;;;;;7.53;6.73;;;;;;;11.91;100.00;101303.38;5132218;27;20227;-72
2021/09/06 08:04:49;;;;;;;12.33;6.97;;;;;;;11.72;100.00;101309.97;5132182;27;20177;-73
2021/09/06 08:07:15;;;;;;;9.90;7.30;;;;;;;11.89;100.00;101313.00;5132412;27;20183;-72
2021/09/06 08:09:40;;;;;;;9.27;8.30;;;;;;;11.99;100.00;101312.00;5132114;27;20204;-72
2021/09/06 08:12:08;;;;;;;9.83;8.83;;;;;;;11.83;100.00;101319.66;5132107;27;20220;-72
2021/09/06 08:14:34;;;;;;;9.93;8.23;;;;;;;12.06;100.00;101321.47;5131955;27;20196;-73
2021/09/06 08:16:59;;;;;;;10.60;9.50;;;;;;;12.42;100.00;101329.06;5131919;27;20255;-72
2021/09/06 08:19:27;;;;;;;13.27;9.63;;;;;;;12.14;100.00;101330.94;5132064;27;20305;-73
2021/09/06 08:21:53;;;;;;;13.47;10.17;;;;;;;12.40;100.00;101325.81;5132018;27;20168;-72
2021/09/06 08:24:19;;;;;;;11.07;9.40;;;;;;;12.56;100.00;101331.81;5131943;27;20199;-72
2021/09/06 08:26:44;;;;;;;12.57;9.10;;;;;;;12.43;100.00;101330.69;5131903;27;20632;-73
2021/09/06 08:29:09;;;;;;;16.83;10.60;;;;;;;12.45;100.00;101332.03;5131774;27;20199;-72
2021/09/06 08:31:35;;;;;;;11.93;10.07;;;;;;;12.43;100.00;101341.66;5131730;27;20176;-72
2021/09/06 08:34:01;;;;;;;11.70;10.50;;;;;;;12.39;100.00;101338.72;5131407;27;20164;-72
2021/09/06 08:36:27;;;;;;;12.77;11.10;;;;;;;12.65;100.00;101341.81;5131764;27;20176;-73
2021/09/06 08:38:52;;;;;;;12.00;10.40;;;;;;;12.67;100.00;101342.31;5131694;27;20532;-75
2021/09/06 08:41:18;;;;;;;13.23;10.80;;;;;;;12.48;100.00;101345.13;5131664;27;20164;-73
2021/09/06 08:43:43;;;;;;;12.90;10.87;;;;;;;12.42;100.00;101348.25;5131424;27;20187;-73
2021/09/06 08:46:09;;;;;;;13.97;11.27;;;;;;;12.68;100.00;101352.16;5132031;27;20164;-72
2021/09/06 08:48:34;;;;;;;19.83;12.10;;;;;;;12.83;100.00;101351.03;5131812;27;20241;-73
2021/09/06 08:51:00;;;;;;;16.63;12.43;;;;;;;12.91;100.00;101347.63;5131549;27;20164;-72
2021/09/06 08:53:25;;;;;;;14.23;12.47;;;;;;;13.01;100.00;101349.31;5131698;27;20171;-73
2021/09/06 08:55:54;;;;;;;15.17;12.07;;;;;;;13.07;100.00;101351.66;5131476;27;20181;-72
2021/09/06 08:58:19;;;;;;;12.37;11.17;;;;;;;13.29;100.00;101347.38;5131606;27;20196;-72
2021/09/06 09:00:46;;;;;;;15.07;12.50;;;;;;;13.50;100.00;101348.59;5131641;28;20643;-72
2021/09/06 09:03:12;;;;;;;14.53;11.67;;;;;;;13.54;100.00;101352.34;5131547;28;20180;-73
2021/09/06 09:05:38;;;;;;;13.03;11.73;;;;;;;13.61;100.00;101354.66;5126464;28;20184;-74
2021/09/06 09:08:03;;;;;;;13.70;11.20;;;;;;;13.72;100.00;101352.47;5131405;28;20180;-74
2021/09/06 09:10:38;;;;;;;16.67;11.97;;;;;;;13.86;100.00;101359.53;5131281;28;20200;-73
2021/09/06 09:13:09;;;;;;;14.77;13.10;;;;;;;13.96;100.00;101350.25;5131947;27;20164;-74
2021/09/06 09:15:36;;;;;;;14.10;12.60;;;;;;;14.01;100.00;101350.13;5130784;28;20233;-73
2021/09/06 09:18:03;;;;;;;12.93;11.63;;;;;;;13.98;100.00;101348.81;5130867;28;20180;-74
2021/09/06 09:20:46;;;;;;;15.07;12.07;;;;;;;14.15;100.00;101356.38;5131001;28;20203;-74
2021/09/06 09:23:11;;;;;;;18.60;12.63;;;;;;;14.22;100.00;101359.50;5132854;28;20169;-74
2021/09/06 09:25:37;;;;;;;13.53;12.10;;;;;;;14.38;100.00;101362.69;5139163;28;20221;-73
2021/09/06 09:28:03;;;;;;;13.63;12.10;;;;;;;14.51;100.00;101359.06;5137542;28;20189;-74
2021/09/06 09:30:33;;;;;;;16.20;13.50;;;;;;;14.30;100.00;101350.47;5131365;28;20391;-74
2021/09/06 09:33:14;;;;;;;22.00;14.97;;;;;;;14.46;100.00;101355.63;5131356;28;20175;-73
2021/09/06 09:35:40;;;;;;;17.23;13.87;;;;;;;14.65;100.00;101352.66;5131146;28;20172;-74
2021/09/06 09:38:11;;;;;;;15.90;12.67;;;;;;;14.91;100.00;101358.28;5131361;28;20180;-74
2021/09/06 09:40:42;;;;;;;15.50;13.97;;;;;;;14.89;100.00;101362.13;5131412;28;20169;-73
2021/09/06 09:43:09;;;;;;;15.17;13.57;;;;;;;14.89;100.00;101359.38;5112758;28;20528;-74
2021/09/06 09:45:35;;;;;;;16.83;13.80;;;;;;;15.03;100.00;101352.97;5131873;27;20616;-74
2021/09/06 09:48:02;;;;;;;19.90;14.60;;;;;;;15.28;100.00;101360.47;5135157;27;20623;-74
2021/09/06 09:50:30;;;;;;;16.10;12.93;;;;;;;15.44;100.00;101364.41;5116854;27;20212;-73
2021/09/06 09:52:55;;;;;;;19.07;15.03;;;;;;;15.56;100.00;101357.47;5134921;27;20180;-74
2021/09/06 09:55:23;;;;;;;20.40;15.10;;;;;;;15.59;100.00;101352.13;5135054;27;20246;-73
2021/09/06 09:57:48;;;;;;;18.17;14.40;;;;;;;15.83;100.00;101359.94;5134799;27;20226;-74
2021/09/06 10:00:15;;;;;;;18.00;15.10;;;;;;;15.87;100.00;101358.16;5135049;27;20632;-74
2021/09/06 10:02:51;;;;;;;14.57;13.13;;;;;;;16.12;100.00;101351.00;5134795;27;20172;-74
2021/09/06 10:05:17;;;;;;;26.87;14.77;;;;;;;16.22;100.00;101353.44;5134518;27;20267;-73
2021/09/06 10:07:48;;;;;;;24.40;14.93;;;;;;;16.41;100.00;101347.53;5134690;27;20181;-74
2021/09/06 10:10:19;;;;;;;27.23;14.83;;;;;;;16.56;100.00;101348.94;5134537;27;20647;-74
2021/09/06 10:12:46;;;;;;;19.13;15.00;;;;;;;16.66;100.00;101346.66;5134651;27;20173;-74
2021/09/06 10:15:12;;;;;;;20.47;14.00;;;;;;;16.86;100.00;101358.94;5134792;27;20538;-74
2021/09/06 10:17:40;;;;;;;22.07;15.47;;;;;;;17.09;100.00;101351.19;5134441;27;20176;-74
2021/09/06 10:20:11;;;;;;;24.60;15.03;;;;;;;17.20;100.00;101344.13;5118878;27;20573;-74
2021/09/06 10:22:37;;;;;;;14.47;12.87;;;;;;;17.33;100.00;101349.75;5132294;27;20659;-74
2021/09/06 10:25:06;;;;;;;17.97;13.97;;;;;;;17.54;100.00;101347.81;5120219;27;20168;-74
2021/09/06 10:27:36;;;;;;;20.13;14.27;;;;;;;17.84;99.11;101345.84;5134316;27;20172;-74
2021/09/06 10:30:08;;;;;;;15.93;13.43;;;;;;;17.92;93.83;101331.09;5133841;27;20207;-74
2021/09/06 10:32:44;;;;;;;16.33;14.57;;;;;;;18.06;93.63;101328.06;5134204;27;20160;-78
2021/09/06 10:35:12;;;;;;;17.10;12.63;;;;;;;18.17;91.48;101326.47;5134010;27;20212;-74
2021/09/06 10:37:39;;;;;;;14.37;12.87;;;;;;;18.36;89.75;101323.19;5134097;27;20627;-74
2021/09/06 10:40:07;;;;;;;15.63;13.37;;;;;;;18.44;89.68;101320.31;5134107;27;20534;-74
2021/09/06 10:42:34;;;;;;;17.53;13.73;;;;;;;18.51;89.99;101316.97;5133832;27;20169;-73
2021/09/06 10:45:02;;;;;;;16.03;12.93;;;;;;;18.44;88.84;101322.28;5134041;27;20214;-75
2021/09/06 10:47:37;;;;;;;16.80;13.27;;;;;;;18.52;89.39;101320.59;5134083;27;20536;-75
2021/09/06 10:50:18;;;;;;;14.93;13.23;;;;;;;18.44;88.36;101313.97;5113398;28;20252;-74
2021/09/06 10:52:45;;;;;;;15.80;12.77;;;;;;;18.45;88.23;101346.03;5113306;28;20184;-74
2021/09/06 10:55:13;;;;;;;14.70;13.20;;;;;;;18.63;89.06;101313.44;5112972;28;20486;-73
2021/09/06 10:57:40;;;;;;;14.50;13.07;;;;;;;18.76;87.97;101380.72;5111920;28;20181;-74
2021/09/06 11:00:12;;;;;;;19.07;13.50;;;;;;;18.46;84.98;101284.00;5113240;28;20185;-74
2021/09/06 11:02:38;;;;;;;14.27;12.67;;;;;;;18.39;86.60;101326.09;5112358;28;20211;-74
2021/09/06 11:05:04;;;;;;;16.53;13.20;;;;;;;18.57;87.45;101318.38;5112755;28;20263;-73
2021/09/06 11:07:29;;;;;;;14.37;12.97;;;;;;;18.76;88.39;101311.50;5112901;28;20170;-74